Terminal Aerodrome Forecast
Issued by NWS

Home | Current Version | Previous Version | Text Only | Print | Product List | Glossary On
Versions: 1 2 3 4 5 6 7 8 9 10 11 12 13 14 15 16 17
000
FTUS41 KCAR 282325
TAFPQI
TAF
KPQI 282325Z 2900/2924 17007KT P6SM OVC050
     FM290400 18010KT P6SM VCSH SCT007 OVC025
     FM290700 19009KT P6SM OVC007
     FM291300 24008KT P6SM BKN015
     FM291600 27010G18KT P6SM BKN035
     FM292100 31012G20KT P6SM SCT040=

USA.gov is the U.S. government's official web portal to all federal, state and local government web resources and services.